Time;durP1;ratioP1;P1;durP2;ratioP2;P2;SDS_P1;SDS_P2;PMS_P1;PMS_P2;Temp;Humidity;BMP_temperature;BMP_pressure;BME280_temperature;BME280_humidity;BME280_pressure;Samples;Min_cycle;Max_cycle;Signal;HPM_P1;HPM_P2
2023/07/03 00:01:55;;;;;;;5.55;3.30;;;;;;;21.87;51.70;93121.19;4975027;28;20046;-92
2023/07/03 00:04:23;;;;;;;6.22;3.10;;;;;;;21.88;51.59;93113.69;4989032;28;20034;-92
2023/07/03 00:06:49;;;;;;;3.63;2.90;;;;;;;21.87;51.58;93114.97;4990746;28;20041;-91
2023/07/03 00:09:14;;;;;;;5.07;3.50;;;;;;;21.87;52.11;93112.22;4973906;28;20511;-91
2023/07/03 00:11:39;;;;;;;4.30;3.30;;;;;;;21.86;51.63;93102.50;4991630;28;20530;-92
2023/07/03 00:14:05;;;;;;;4.07;3.17;;;;;;;21.86;51.68;93108.00;4971095;28;20034;-89
2023/07/03 00:16:30;;;;;;;5.47;3.75;;;;;;;21.86;51.77;93108.00;4966279;28;20451;-87
2023/07/03 00:18:56;;;;;;;3.55;2.88;;;;;;;21.86;51.74;93114.25;4990642;28;20431;-88
2023/07/03 00:21:21;;;;;;;5.25;2.88;;;;;;;21.85;51.39;93112.78;4990974;28;20076;-91
2023/07/03 00:23:47;;;;;;;3.90;3.10;;;;;;;21.86;51.70;93116.25;5014362;28;20064;-90
2023/07/03 00:26:12;;;;;;;5.53;3.50;;;;;;;21.85;51.62;93115.53;4989873;28;20045;-91
2023/07/03 00:28:37;;;;;;;4.68;3.35;;;;;;;21.85;51.70;93117.53;4990984;28;20504;-92
2023/07/03 00:31:03;;;;;;;4.13;3.10;;;;;;;21.85;51.59;93121.03;4990866;28;20098;-89
2023/07/03 00:33:28;;;;;;;4.60;3.05;;;;;;;21.84;51.85;93118.81;4990278;28;20096;-91
2023/07/03 00:35:55;;;;;;;4.20;2.80;;;;;;;21.84;51.47;93116.81;4990281;28;20315;-87
2023/07/03 00:38:20;;;;;;;4.25;3.28;;;;;;;21.83;51.69;93123.59;5003823;28;20045;-91
2023/07/03 00:40:46;;;;;;;4.82;3.40;;;;;;;21.83;51.59;93120.84;4989950;28;20376;-88
2023/07/03 00:43:13;;;;;;;4.85;3.15;;;;;;;21.83;51.57;93120.84;4974126;28;20058;-90
2023/07/03 00:45:38;;;;;;;6.00;4.00;;;;;;;21.83;51.60;93125.59;4990897;28;20045;-90
2023/07/03 00:48:04;;;;;;;4.30;3.33;;;;;;;21.83;51.83;93129.09;5005358;28;20049;-87
2023/07/03 00:50:30;;;;;;;5.00;3.47;;;;;;;21.83;51.83;93126.34;4968126;28;20050;-88
2023/07/03 00:52:58;;;;;;;5.07;3.50;;;;;;;21.82;51.66;93124.13;4988008;28;20576;-90
2023/07/03 00:55:24;;;;;;;4.82;3.25;;;;;;;21.81;51.71;93109.63;4990136;28;20037;-90
2023/07/03 00:57:50;;;;;;;4.93;3.40;;;;;;;21.81;51.70;93115.13;5006843;28;20153;-87
2023/07/03 01:00:15;;;;;;;5.60;3.70;;;;;;;21.81;51.71;93126.13;4989411;28;20042;-90
2023/07/03 01:03:01;;;;;;;6.13;4.03;;;;;;;21.82;51.52;93126.88;4988967;28;20061;-90
2023/07/03 01:05:32;;;;;;;4.53;3.30;;;;;;;21.81;51.61;93134.38;5006354;28;20038;-93
2023/07/03 01:07:57;;;;;;;4.95;3.70;;;;;;;21.81;51.75;93119.91;5006703;28;20520;-91
2023/07/03 01:10:23;;;;;;;4.32;3.35;;;;;;;21.80;51.59;93121.16;4988958;28;20045;-90
2023/07/03 01:12:51;;;;;;;4.45;3.45;;;;;;;21.81;51.53;93119.91;5006801;28;20073;-90
2023/07/03 01:15:20;;;;;;;3.72;2.80;;;;;;;21.80;51.87;93132.91;5006335;28;20502;-87
2023/07/03 01:17:47;;;;;;;3.80;2.90;;;;;;;21.79;51.80;93136.22;4986003;28;20493;-90
2023/07/03 01:20:13;;;;;;;4.68;3.33;;;;;;;21.80;51.74;93132.19;4974493;28;20054;-87
2023/07/03 01:23:06;;;;;;;5.75;3.78;;;;;;;21.79;51.34;93125.94;4979557;28;20182;-88
2023/07/03 01:25:32;;;;;;;5.38;3.20;;;;;;;21.80;51.48;93137.69;4994465;28;20080;-91
2023/07/03 01:27:58;;;;;;;4.93;3.67;;;;;;;21.79;51.73;93131.44;4992765;28;20095;-89
2023/07/03 01:30:24;;;;;;;5.15;3.47;;;;;;;21.78;51.60;93131.97;5007399;28;20363;-90
2023/07/03 01:32:50;;;;;;;4.40;3.38;;;;;;;21.78;51.60;93134.72;4986040;28;20050;-91
2023/07/03 01:35:16;;;;;;;5.47;3.60;;;;;;;21.77;51.65;93131.25;4966236;28;20050;-93
2023/07/03 01:37:44;;;;;;;4.55;3.30;;;;;;;21.79;51.54;93138.97;4989596;28;20128;-90
2023/07/03 01:40:10;;;;;;;4.10;3.15;;;;;;;21.79;51.58;93119.69;4989031;28;20030;-89
2023/07/03 01:42:37;;;;;;;4.45;3.08;;;;;;;21.78;51.83;93123.72;4974290;28;20370;-93
2023/07/03 01:45:04;;;;;;;5.82;3.25;;;;;;;21.77;51.59;93117.47;4986691;28;20069;-89
2023/07/03 01:47:30;;;;;;;4.72;3.50;;;;;;;21.77;51.48;93122.25;4970966;28;20072;-88
2023/07/03 01:49:55;;;;;;;5.45;3.67;;;;;;;21.76;51.64;93120.78;4989580;28;20038;-92
2023/07/03 01:52:24;;;;;;;5.05;3.65;;;;;;;21.77;51.50;93114.00;4989563;28;20034;-91
2023/07/03 01:54:58;;;;;;;5.63;3.75;;;;;;;21.77;51.61;93122.25;5005593;28;20042;-89
2023/07/03 01:57:42;;;;;;;5.47;3.97;;;;;;;21.76;51.47;93115.28;5009265;28;20117;-90
2023/07/03 02:00:10;;;;;;;5.28;3.58;;;;;;;21.78;51.45;93120.97;5004770;28;20065;-86
2023/07/03 02:02:36;;;;;;;4.97;3.65;;;;;;;21.78;51.60;93115.47;4989315;28;20046;-88
2023/07/03 02:05:07;;;;;;;4.88;3.78;;;;;;;21.75;51.72;93109.03;4989971;28;20049;-93
2023/07/03 02:07:32;;;;;;;8.23;3.90;;;;;;;21.76;51.44;93121.50;4987210;28;20038;-89
2023/07/03 02:09:58;;;;;;;5.30;3.88;;;;;;;21.77;51.46;93117.47;4989659;28;20037;-88
2023/07/03 02:12:24;;;;;;;4.45;3.67;;;;;;;21.73;51.73;93114.34;5005086;28;20037;-87
2023/07/03 02:14:50;;;;;;;5.57;3.85;;;;;;;21.74;51.41;93110.31;4977874;28;20395;-87
2023/07/03 02:17:15;;;;;;;4.68;3.30;;;;;;;21.75;51.49;93113.78;4991483;28;20041;-89
2023/07/03 02:19:41;;;;;;;5.72;3.40;;;;;;;21.75;51.36;93106.28;4993685;28;20196;-90
2023/07/03 02:22:07;;;;;;;5.32;3.70;;;;;;;21.76;51.43;93112.50;4993837;28;20042;-91
2023/07/03 02:24:33;;;;;;;4.80;3.58;;;;;;;21.76;51.49;93113.25;4992660;28;20543;-89
2023/07/03 02:26:59;;;;;;;5.22;3.67;;;;;;;21.74;51.60;93115.81;4977881;28;20042;-91
2023/07/03 02:29:24;;;;;;;6.03;4.05;;;;;;;21.73;51.59;93114.34;4990093;28;20100;-91
2023/07/03 02:31:50;;;;;;;4.22;3.05;;;;;;;21.73;51.50;93117.09;4967108;28;20360;-87
2023/07/03 02:34:15;;;;;;;4.95;3.50;;;;;;;21.73;51.34;93124.59;4989657;28;20077;-89
2023/07/03 02:36:41;;;;;;;5.00;4.18;;;;;;;21.75;51.44;93130.31;4991936;28;20033;-87
2023/07/03 02:39:07;;;;;;;5.03;4.22;;;;;;;21.75;51.51;93136.53;5007662;28;20053;-89
2023/07/03 02:41:33;;;;;;;5.60;3.70;;;;;;;21.74;51.25;93131.56;4993285;28;20049;-91
2023/07/03 02:43:58;;;;;;;5.30;3.92;;;;;;;21.75;51.68;93135.81;4999026;28;20056;-91
2023/07/03 02:46:24;;;;;;;5.68;4.32;;;;;;;21.73;51.44;93132.84;4991522;28;20038;-89
2023/07/03 02:48:49;;;;;;;6.13;4.22;;;;;;;21.73;51.47;93130.84;4980601;28;20042;-92
2023/07/03 02:51:14;;;;;;;5.93;4.13;;;;;;;21.72;51.44;93132.13;4992650;28;20046;-93
2023/07/03 02:53:41;;;;;;;5.53;3.70;;;;;;;21.73;51.61;93138.34;4991830;28;20500;-88
2023/07/03 02:56:07;;;;;;;5.82;4.07;;;;;;;21.72;51.41;93128.63;5015618;28;20411;-88
2023/07/03 02:58:32;;;;;;;5.13;3.95;;;;;;;21.71;51.49;93133.38;5009372;28;20034;-88
2023/07/03 03:00:57;;;;;;;4.65;3.53;;;;;;;21.71;51.50;93135.41;5007691;28;20518;-88
2023/07/03 03:03:23;;;;;;;5.57;4.30;;;;;;;21.69;51.30;93130.44;4992258;28;20503;-88
2023/07/03 03:05:48;;;;;;;6.43;4.20;;;;;;;21.69;51.51;93135.94;5008992;28;20041;-87
2023/07/03 03:08:14;;;;;;;6.15;4.30;;;;;;;21.70;51.23;93133.94;4990929;28;20132;-93
2023/07/03 03:10:39;;;;;;;6.05;4.35;;;;;;;21.69;51.62;93130.44;4993085;28;20467;-88
2023/07/03 03:13:05;;;;;;;6.72;4.10;;;;;;;21.69;51.68;93135.19;4978662;28;20440;-88
2023/07/03 03:15:34;;;;;;;6.05;4.35;;;;;;;21.69;51.30;93135.19;4988535;28;20500;-88
2023/07/03 03:17:59;;;;;;;7.30;4.72;;;;;;;21.69;51.16;93140.69;4980752;28;20045;-92
2023/07/03 03:20:25;;;;;;;5.53;4.00;;;;;;;21.70;51.58;93131.19;5009447;28;20064;-90
2023/07/03 03:22:50;;;;;;;5.63;3.92;;;;;;;21.68;51.16;93131.72;4995385;28;20118;-88
2023/07/03 03:25:16;;;;;;;6.30;4.03;;;;;;;21.68;51.10;93142.72;5007539;28;20046;-90
2023/07/03 03:27:41;;;;;;;6.55;5.20;;;;;;;21.78;50.97;93140.97;4991279;28;20038;-91
2023/07/03 03:30:08;;;;;;;9.38;6.25;;;;;;;21.73;51.00;93141.09;5008368;28;20053;-89
2023/07/03 03:32:33;;;;;;;37.72;15.07;;;;;;;21.87;50.74;93134.22;4990585;28;20121;-90
2023/07/03 03:35:00;;;;;;;100.10;80.35;;;;;;;21.78;50.79;93138.22;4990275;28;20042;-92
2023/07/03 03:37:26;;;;;;;45.13;33.97;;;;;;;21.83;51.15;93139.34;4984995;28;20135;-93
2023/07/03 03:39:51;;;;;;;178.98;136.60;;;;;;;21.87;50.78;93143.22;5010357;28;20450;-89
2023/07/03 03:42:17;;;;;;;20.90;14.50;;;;;;;21.94;51.00;93147.31;4989567;28;20069;-89
2023/07/03 03:44:42;;;;;;;47.85;33.83;;;;;;;22.03;50.79;93152.38;4978590;28;20064;-94
2023/07/03 03:47:07;;;;;;;230.43;96.70;;;;;;;22.16;50.99;93149.50;4983645;28;20711;-91
2023/07/03 03:49:33;;;;;;;27.88;11.68;;;;;;;21.93;50.64;93159.59;4955518;28;20052;-92
2023/07/03 03:51:59;;;;;;;236.75;102.28;;;;;;;21.92;50.29;93154.63;4943414;28;20050;-94
2023/07/03 03:54:28;;;;;;;29.15;14.52;;;;;;;21.79;49.30;93156.19;4955623;28;20463;-93
2023/07/03 03:56:53;;;;;;;74.78;19.40;;;;;;;21.83;49.17;93158.63;4973789;28;20046;-91
2023/07/03 03:59:20;;;;;;;131.75;44.72;;;;;;;21.64;48.75;93160.84;4956064;28;20392;-91
2023/07/03 04:01:46;;;;;;;151.30;52.65;;;;;;;21.34;49.52;93169.56;4949558;28;20058;-91
2023/07/03 04:04:11;;;;;;;99.90;42.40;;;;;;;21.11;50.23;93159.06;5001397;23;20038;-90
2023/07/03 04:06:37;;;;;;;96.60;49.78;;;;;;;20.87;50.95;93156.59;4986932;28;20460;-91
2023/07/03 04:09:04;;;;;;;105.10;47.08;;;;;;;20.81;51.33;93173.22;4969148;28;20520;-92
2023/07/03 04:11:30;;;;;;;103.93;50.50;;;;;;;20.70;51.75;93162.47;4989149;28;20097;-92
2023/07/03 04:13:56;;;;;;;75.97;34.67;;;;;;;20.57;52.00;93162.47;4979715;28;20050;-93
2023/07/03 04:16:21;;;;;;;46.85;24.50;;;;;;;20.33;52.33;93157.97;4987080;28;20043;-91
2023/07/03 04:18:47;;;;;;;57.92;22.17;;;;;;;20.16;52.44;93154.78;5022425;28;20033;-90
2023/07/03 04:21:12;;;;;;;42.85;19.42;;;;;;;20.11;52.66;93155.66;5020357;28;20375;-90
2023/07/03 04:23:38;;;;;;;44.58;18.15;;;;;;;20.00;52.66;93162.09;4974210;28;20053;-94
2023/07/03 04:26:03;;;;;;;47.67;18.42;;;;;;;20.05;52.07;93158.50;4974671;28;20061;-89
2023/07/03 04:28:29;;;;;;;47.63;24.55;;;;;;;19.98;52.45;93158.38;4987392;28;20053;-90
2023/07/03 04:30:54;;;;;;;36.75;16.85;;;;;;;19.86;52.88;93152.38;5023101;28;20061;-92
2023/07/03 04:33:21;;;;;;;34.03;18.00;;;;;;;19.85;52.70;93156.38;4983246;28;20043;-94
2023/07/03 04:35:47;;;;;;;60.08;25.48;;;;;;;19.72;53.26;93164.56;4975967;28;20188;-90
2023/07/03 04:38:12;;;;;;;44.88;22.77;;;;;;;19.73;53.37;93166.06;5001313;28;20046;-91
2023/07/03 04:40:38;;;;;;;47.35;24.75;;;;;;;19.64;53.89;93161.00;4980907;28;20066;-93
2023/07/03 04:43:06;;;;;;;54.60;25.50;;;;;;;19.59;54.31;93168.06;4963444;28;20030;-89
2023/07/03 04:45:31;;;;;;;55.33;21.30;;;;;;;19.61;54.45;93170.25;5025655;28;20045;-91
2023/07/03 04:47:57;;;;;;;32.78;17.38;;;;;;;19.66;54.39;93172.19;5007880;28;20053;-92
2023/07/03 04:50:24;;;;;;;33.92;17.58;;;;;;;19.64;54.76;93159.00;4996505;28;20084;-94
2023/07/03 04:52:50;;;;;;;37.30;16.55;;;;;;;19.66;54.73;93172.94;4976205;28;20069;-91
2023/07/03 04:55:17;;;;;;;39.35;19.00;;;;;;;19.66;55.01;93166.69;4958030;28;20034;-93
2023/07/03 04:57:46;;;;;;;33.58;16.42;;;;;;;19.59;55.13;93167.31;4979605;28;20455;-93
2023/07/03 05:00:17;;;;;;;26.52;14.80;;;;;;;19.55;54.99;93175.09;4983666;23;20057;-89
2023/07/03 05:02:46;;;;;;;25.10;14.07;;;;;;;19.65;55.06;93178.94;5023458;23;20488;-90
2023/07/03 05:05:12;;;;;;;22.77;12.63;;;;;;;19.59;55.35;93178.28;4997462;28;20030;-92
2023/07/03 05:07:38;;;;;;;20.35;13.13;;;;;;;19.55;55.83;93181.31;4988545;28;20144;-92
2023/07/03 05:10:04;;;;;;;27.30;14.40;;;;;;;19.52;56.14;93177.63;4997356;28;20120;-94
2023/07/03 05:12:30;;;;;;;26.80;17.02;;;;;;;19.49;56.35;93186.88;5001764;28;20049;-94
2023/07/03 05:14:56;;;;;;;35.65;17.17;;;;;;;19.65;56.10;93189.91;5000753;28;20041;-92
2023/07/03 05:17:23;;;;;;;34.50;15.25;;;;;;;19.61;56.38;93187.47;5004234;28;20045;-95
2023/07/03 05:19:48;;;;;;;31.50;16.85;;;;;;;19.71;56.01;93193.25;5007800;28;20553;-93
2023/07/03 05:22:14;;;;;;;39.72;20.23;;;;;;;19.78;56.02;93196.13;4993151;28;20105;-94
2023/07/03 05:24:39;;;;;;;31.50;19.48;;;;;;;19.81;56.27;93186.88;5000550;28;20053;-93
2023/07/03 05:27:05;;;;;;;38.17;17.52;;;;;;;19.84;56.63;93185.06;5023786;28;20124;-93
2023/07/03 05:29:32;;;;;;;28.08;16.38;;;;;;;19.83;56.64;93198.06;5013137;28;20037;-90
2023/07/03 05:31:59;;;;;;;30.40;15.30;;;;;;;19.91;56.63;93191.94;5029071;28;20104;-89
2023/07/03 05:34:25;;;;;;;21.70;14.23;;;;;;;19.96;56.43;93200.06;5016221;28;20038;-94
2023/07/03 05:36:50;;;;;;;55.03;25.58;;;;;;;19.95;56.67;93192.34;5018274;28;20052;-91
2023/07/03 05:39:15;;;;;;;32.03;17.85;;;;;;;19.98;56.78;93197.53;5013479;28;20033;-90
2023/07/03 05:41:42;;;;;;;53.08;19.98;;;;;;;20.05;56.56;93198.91;4994975;28;20042;-91
2023/07/03 05:44:08;;;;;;;42.03;19.65;;;;;;;20.02;56.49;93195.22;5014112;28;20042;-93
2023/07/03 05:46:35;;;;;;;42.33;23.05;;;;;;;20.10;56.65;93201.56;5014618;28;20034;-95
2023/07/03 05:49:02;;;;;;;84.65;26.65;;;;;;;20.23;55.28;93200.09;5044838;28;20068;-94
2023/07/03 05:51:30;;;;;;;66.03;28.33;;;;;;;20.32;55.08;93202.41;5023568;28;20037;-91
2023/07/03 05:53:55;;;;;;;76.35;24.13;;;;;;;20.30;54.89;93204.94;5010747;23;20051;-94
2023/07/03 05:56:21;;;;;;;35.45;19.13;;;;;;;20.36;54.31;93211.06;4951930;28;20054;-90
2023/07/03 05:58:46;;;;;;;31.70;15.82;;;;;;;20.40;52.83;93204.00;4954223;28;20116;-91
2023/07/03 06:01:13;;;;;;;45.85;16.17;;;;;;;20.37;52.50;93210.56;4954328;28;20049;-92
2023/07/03 06:03:43;;;;;;;37.60;18.08;;;;;;;20.43;52.54;93208.44;4948345;28;20453;-89
2023/07/03 06:06:09;;;;;;;41.10;21.92;;;;;;;20.50;52.08;93213.31;4933226;28;20070;-90
2023/07/03 06:08:34;;;;;;;58.55;30.10;;;;;;;20.53;51.90;93214.25;4949340;28;20046;-89
2023/07/03 06:11:00;;;;;;;62.45;35.40;;;;;;;20.57;51.65;93209.16;4972283;28;20043;-90
2023/07/03 06:13:25;;;;;;;75.03;41.55;;;;;;;20.67;50.75;93215.72;4933353;28;20058;-90
2023/07/03 06:15:54;;;;;;;67.68;39.72;;;;;;;20.66;50.67;93227.22;4948386;28;20051;-90
2023/07/03 06:18:19;;;;;;;56.65;33.83;;;;;;;20.74;50.47;93225.34;4927132;28;20091;-91
2023/07/03 06:20:45;;;;;;;44.15;26.45;;;;;;;20.72;50.31;93225.13;4933839;28;20046;-91
2023/07/03 06:23:10;;;;;;;39.60;23.05;;;;;;;20.67;50.52;93228.72;4919295;28;20062;-90
2023/07/03 06:25:36;;;;;;;44.10;27.55;;;;;;;20.70;50.17;93219.41;4931686;28;20059;-91
2023/07/03 06:28:02;;;;;;;39.22;21.98;;;;;;;20.67;50.31;93234.94;4929524;28;20047;-91
2023/07/03 06:30:28;;;;;;;68.05;26.05;;;;;;;20.66;50.38;93227.22;4923878;28;20102;-92
2023/07/03 06:32:54;;;;;;;83.63;26.60;;;;;;;20.59;50.16;93223.13;4928615;28;20047;-91
2023/07/03 06:35:20;;;;;;;79.05;27.85;;;;;;;20.67;50.02;93229.44;4935578;28;20034;-92
2023/07/03 06:37:47;;;;;;;91.82;24.38;;;;;;;20.61;50.23;93223.31;4934422;28;20122;-92
2023/07/03 06:40:15;;;;;;;94.40;27.40;;;;;;;20.56;50.21;93235.19;4967112;28;20042;-91
2023/07/03 06:42:41;;;;;;;90.18;38.03;;;;;;;20.68;50.43;93227.44;4953950;28;20502;-91
2023/07/03 06:45:07;;;;;;;113.75;49.00;;;;;;;20.64;49.88;93221.53;4934893;28;20371;-92
2023/07/03 06:47:32;;;;;;;116.03;56.10;;;;;;;20.52;50.89;93221.03;4934957;28;20364;-92
2023/07/03 06:49:58;;;;;;;95.55;46.15;;;;;;;20.55;50.42;93232.97;4920276;28;20522;-92
2023/07/03 06:52:23;;;;;;;88.70;43.63;;;;;;;20.57;50.38;93230.44;4940811;28;20046;-91
2023/07/03 06:54:49;;;;;;;60.92;30.08;;;;;;;20.55;50.73;93241.94;4933151;28;20043;-94
2023/07/03 06:57:14;;;;;;;64.32;32.35;;;;;;;20.54;50.32;93229.47;4934219;28;20410;-92
2023/07/03 06:59:39;;;;;;;68.40;35.90;;;;;;;20.62;50.36;93230.28;4919341;29;20043;-92
2023/07/03 07:02:05;;;;;;;72.82;32.72;;;;;;;20.65;50.13;93234.72;4936924;28;20047;-92
2023/07/03 07:04:31;;;;;;;61.25;30.88;;;;;;;20.57;50.15;93233.16;4922492;29;20106;-91
2023/07/03 07:06:56;;;;;;;72.32;35.60;;;;;;;20.53;49.67;93236.22;4938097;28;20138;-91
2023/07/03 07:09:22;;;;;;;71.70;34.95;;;;;;;20.59;49.60;93228.59;4920632;28;20054;-92
2023/07/03 07:11:47;;;;;;;64.47;32.22;;;;;;;20.71;49.00;93234.63;4937891;28;20047;-92
2023/07/03 07:14:14;;;;;;;59.40;29.52;;;;;;;20.69;48.31;93234.41;4923109;28;20120;-92
2023/07/03 07:16:40;;;;;;;67.43;31.20;;;;;;;20.62;48.70;93240.53;4919372;29;20039;-91
2023/07/03 07:19:07;;;;;;;73.20;31.42;;;;;;;20.66;48.39;93227.97;4915781;28;20053;-91
2023/07/03 07:21:34;;;;;;;65.18;30.10;;;;;;;20.77;47.71;93238.75;4924772;29;20059;-88
2023/07/03 07:24:02;;;;;;;60.70;25.83;;;;;;;20.73;47.67;93215.63;4959071;28;20051;-90
2023/07/03 07:26:30;;;;;;;68.38;24.92;;;;;;;20.78;46.99;93225.75;4932819;28;20043;-91
2023/07/03 07:28:56;;;;;;;68.25;25.38;;;;;;;20.73;46.79;93221.84;4956127;28;20065;-92
2023/07/03 07:31:23;;;;;;;52.28;20.77;;;;;;;20.71;46.87;93229.88;4972154;28;20047;-91
2023/07/03 07:33:49;;;;;;;43.45;19.10;;;;;;;20.70;46.98;93225.66;4968265;28;20062;-93
2023/07/03 07:36:15;;;;;;;58.15;22.52;;;;;;;20.77;46.77;93222.28;4945208;28;20038;-92
2023/07/03 07:38:41;;;;;;;55.35;20.05;;;;;;;20.70;47.26;93220.16;4937467;28;20043;-93
2023/07/03 07:41:07;;;;;;;38.60;17.83;;;;;;;20.75;47.22;93224.81;4956925;28;20030;-92
2023/07/03 07:43:32;;;;;;;33.72;16.75;;;;;;;20.73;46.93;93221.09;4944124;28;20063;-92
2023/07/03 07:45:59;;;;;;;39.55;19.85;;;;;;;20.76;46.76;93225.53;4943142;29;20027;-91
2023/07/03 07:48:26;;;;;;;128.63;51.33;;;;;;;20.73;46.55;93223.84;4946268;28;20047;-93
2023/07/03 07:50:51;;;;;;;136.57;66.13;;;;;;;20.78;46.43;93225.75;4942534;28;20050;-90
2023/07/03 07:53:17;;;;;;;103.03;47.33;;;;;;;20.72;46.58;93222.38;4940142;28;20111;-91
2023/07/03 07:55:42;;;;;;;80.70;39.92;;;;;;;20.78;46.43;93225.75;4956854;28;20042;-90
2023/07/03 07:58:08;;;;;;;107.97;50.85;;;;;;;20.79;46.62;93230.69;4952840;28;20113;-90
2023/07/03 08:00:34;;;;;;;110.85;42.47;;;;;;;20.75;47.04;93227.56;4940477;28;20045;-90
2023/07/03 08:03:01;;;;;;;126.22;56.58;;;;;;;20.77;46.99;93224.28;4939357;28;20043;-91
2023/07/03 08:05:26;;;;;;;117.25;58.67;;;;;;;20.82;46.62;93231.66;4939514;28;20043;-91
2023/07/03 08:07:52;;;;;;;98.32;47.88;;;;;;;20.78;46.43;93231.25;4930675;28;20051;-92
2023/07/03 08:10:19;;;;;;;67.97;34.17;;;;;;;20.76;45.96;93239.28;4972288;28;20042;-91
2023/07/03 08:12:45;;;;;;;67.25;34.50;;;;;;;20.73;45.96;93240.34;4944311;28;20038;-91
2023/07/03 08:15:10;;;;;;;54.60;29.05;;;;;;;20.78;46.26;93234.72;4946693;28;20054;-91
2023/07/03 08:17:42;;;;;;;58.63;29.85;;;;;;;20.73;46.74;93229.34;4948933;28;20039;-92
2023/07/03 08:20:11;;;;;;;51.58;26.58;;;;;;;20.77;46.96;93238.00;4968186;28;20046;-90
2023/07/03 08:22:38;;;;;;;38.28;21.30;;;;;;;20.71;46.41;93242.88;4993751;23;20061;-93
2023/07/03 08:25:03;;;;;;;37.38;19.15;;;;;;;20.74;46.59;93247.31;4979640;28;20045;-95
2023/07/03 08:27:29;;;;;;;50.83;28.90;;;;;;;20.70;46.16;93241.38;4980291;28;20034;-92
2023/07/03 08:29:56;;;;;;;87.13;46.63;;;;;;;20.64;46.60;93249.00;4986534;28;20090;-94
2023/07/03 08:32:23;;;;;;;66.30;36.33;;;;;;;20.65;46.49;93250.47;4984411;28;20576;-92
2023/07/03 08:34:49;;;;;;;49.42;29.63;;;;;;;20.71;46.04;93248.38;4977022;28;20062;-92
2023/07/03 08:37:15;;;;;;;39.85;23.48;;;;;;;20.70;46.40;93242.13;4980580;28;20038;-93
2023/07/03 08:39:40;;;;;;;47.83;24.30;;;;;;;20.67;46.37;93247.94;4976808;28;20045;-91
2023/07/03 08:42:21;;;;;;;46.50;22.48;;;;;;;20.65;45.93;93250.47;4976135;28;20062;-94
2023/07/03 08:44:47;;;;;;;45.72;22.67;;;;;;;20.66;45.91;93246.47;5007383;28;20042;-90
2023/07/03 08:47:16;;;;;;;48.45;22.58;;;;;;;20.73;45.88;93238.31;4985200;28;20054;-93
2023/07/03 08:49:43;;;;;;;39.95;19.63;;;;;;;20.72;46.10;93247.09;4991996;28;20052;-92
2023/07/03 08:52:09;;;;;;;36.33;17.77;;;;;;;20.74;45.87;93236.31;5000436;28;20034;-91
2023/07/03 08:54:37;;;;;;;31.60;18.58;;;;;;;20.74;45.70;93231.56;5005013;28;20378;-91
2023/07/03 08:57:09;;;;;;;36.70;19.00;;;;;;;20.78;45.33;93232.00;4999297;28;20045;-91
2023/07/03 08:59:35;;;;;;;32.17;17.15;;;;;;;20.74;45.39;93247.31;4993123;28;20042;-91
2023/07/03 09:02:03;;;;;;;49.08;29.05;;;;;;;20.67;45.37;93236.94;4979768;28;20112;-89
2023/07/03 09:04:47;;;;;;;52.63;29.35;;;;;;;20.67;45.35;93237.69;4985640;28;20061;-91
2023/07/03 09:07:27;;;;;;;43.63;22.55;;;;;;;20.62;45.63;93244.03;4995125;28;20045;-93
2023/07/03 09:09:57;;;;;;;42.25;20.77;;;;;;;20.69;45.43;93243.41;4994038;28;20565;-91
2023/07/03 09:12:29;;;;;;;57.53;30.95;;;;;;;20.72;46.41;93242.34;4999450;28;20050;-91
2023/07/03 09:15:09;;;;;;;49.10;24.38;;;;;;;20.73;45.99;93248.56;4998270;28;20046;-92
2023/07/03 09:17:35;;;;;;;37.53;17.77;;;;;;;20.65;46.13;93253.22;4985840;28;20120;-92
2023/07/03 09:20:07;;;;;;;32.92;16.90;;;;;;;20.62;45.88;93240.53;4995934;28;20088;-93
2023/07/03 09:22:41;;;;;;;27.58;14.20;;;;;;;20.64;46.06;93244.25;4970798;28;20045;-92
2023/07/03 09:25:10;;;;;;;26.42;13.35;;;;;;;20.71;46.28;93246.34;4993535;28;20412;-93
2023/07/03 09:27:44;;;;;;;58.30;33.33;;;;;;;20.74;46.14;93261.03;4978286;28;20042;-93
2023/07/03 09:30:18;;;;;;;86.93;39.65;;;;;;;20.70;46.08;93253.13;4982154;28;20072;-93
2023/07/03 09:32:43;;;;;;;80.63;41.25;;;;;;;20.68;46.55;93249.41;5009428;28;20050;-93
2023/07/03 09:35:20;;;;;;;58.58;32.80;;;;;;;20.65;46.75;93244.97;4969646;28;20181;-91
2023/07/03 09:37:50;;;;;;;89.28;46.92;;;;;;;20.64;46.67;93246.25;5035244;23;20408;-92
2023/07/03 09:40:22;;;;;;;89.05;44.45;;;;;;;20.67;46.45;93245.94;4988216;28;20046;-93
2023/07/03 09:42:56;;;;;;;74.38;36.10;;;;;;;20.70;46.61;93244.13;4977833;28;20136;-94
2023/07/03 09:45:23;;;;;;;100.50;32.78;;;;;;;20.72;46.73;93250.59;4995936;28;20176;-93
2023/07/03 09:47:57;;;;;;;71.32;24.75;;;;;;;20.70;46.84;93252.38;4930587;28;20043;-93
2023/07/03 09:50:25;;;;;;;67.13;23.77;;;;;;;20.72;46.99;93250.59;4943955;28;20099;-95
2023/07/03 09:52:53;;;;;;;52.50;19.40;;;;;;;20.73;47.34;93251.31;4945824;28;20043;-94
2023/07/03 09:55:19;;;;;;;41.50;17.75;;;;;;;20.83;47.02;93250.34;4930705;28;20043;-91
2023/07/03 09:57:45;;;;;;;44.53;15.60;;;;;;;20.87;47.00;93250.75;4923592;28;20042;-93
2023/07/03 10:00:18;;;;;;;31.90;14.18;;;;;;;20.90;46.96;93254.47;4952863;28;20046;-90
2023/07/03 10:02:43;;;;;;;27.23;13.88;;;;;;;20.94;46.84;93246.63;4921060;28;20082;-90
2023/07/03 10:05:16;;;;;;;30.63;12.63;;;;;;;20.87;46.39;93237.03;4944926;28;20091;-89
2023/07/03 10:07:43;;;;;;;23.80;11.25;;;;;;;20.93;46.54;93247.16;4920331;28;20129;-90
2023/07/03 10:10:19;;;;;;;21.40;11.50;;;;;;;20.81;46.17;93247.38;4933565;28;20051;-90
2023/07/03 10:13:05;;;;;;;27.10;12.30;;;;;;;20.76;46.12;93244.78;4935291;28;20368;-90
2023/07/03 10:15:33;;;;;;;21.80;11.18;;;;;;;20.87;46.74;93242.53;4935006;28;20049;-89
2023/07/03 10:18:08;;;;;;;23.92;11.20;;;;;;;20.88;46.90;93237.75;4963143;28;20047;-90
2023/07/03 10:20:37;;;;;;;27.63;11.13;;;;;;;20.91;46.64;93238.72;4949131;28;20085;-90
2023/07/03 10:23:07;;;;;;;20.90;11.45;;;;;;;20.88;46.69;93246.00;4932640;28;20046;-90
2023/07/03 10:25:38;;;;;;;23.80;12.48;;;;;;;20.90;46.62;93231.75;4949637;28;20039;-90
2023/07/03 10:28:08;;;;;;;21.60;10.60;;;;;;;21.00;46.83;93238.28;4932787;28;20536;-92
2023/07/03 10:30:35;;;;;;;27.30;10.02;;;;;;;20.97;46.80;93242.09;4966411;28;20117;-92
2023/07/03 10:33:03;;;;;;;25.40;11.43;;;;;;;21.00;46.07;93224.53;4967570;28;20046;-92
2023/07/03 10:35:30;;;;;;;19.42;9.57;;;;;;;21.00;46.12;93236.25;4973812;28;20062;-91
2023/07/03 10:38:05;;;;;;;32.97;16.73;;;;;;;21.01;46.26;93237.72;4976924;28;20137;-91
2023/07/03 10:40:43;;;;;;;39.67;21.33;;;;;;;21.05;46.45;93243.66;4971964;28;20035;-91
2023/07/03 10:43:09;;;;;;;41.33;21.20;;;;;;;21.00;45.31;93230.03;4958080;28;20417;-90
2023/07/03 10:45:36;;;;;;;28.95;16.98;;;;;;;20.97;45.91;93234.59;4988328;28;20046;-90
2023/07/03 10:48:07;;;;;;;30.83;15.45;;;;;;;20.93;45.48;93242.41;4976127;28;20047;-91
2023/07/03 10:50:54;;;;;;;21.33;12.85;;;;;;;20.88;45.80;93238.50;4978031;28;20465;-90
2023/07/03 10:53:32;;;;;;;25.52;14.80;;;;;;;20.97;46.47;93236.59;4993693;28;20037;-90
2023/07/03 10:56:06;;;;;;;88.30;56.53;;;;;;;21.02;46.14;93246.72;5006723;28;20443;-92
2023/07/03 10:58:37;;;;;;;114.10;61.60;;;;;;;21.02;45.46;93241.22;4992651;28;20421;-94
2023/07/03 11:01:19;;;;;;;105.15;44.03;;;;;;;21.00;45.76;93247.25;4993269;28;20039;-92
2023/07/03 11:04:14;;;;;;;119.95;33.92;;;;;;;20.99;45.63;93250.56;4995547;28;20231;-91
2023/07/03 11:06:44;;;;;;;60.50;23.75;;;;;;;20.95;45.83;93256.38;4988784;28;20042;-91
2023/07/03 11:09:23;;;;;;;54.58;20.40;;;;;;;20.97;45.97;93253.81;4987592;28;20065;-92
2023/07/03 11:12:00;;;;;;;50.45;22.15;;;;;;;20.93;46.03;93245.16;4966364;28;20038;-91
2023/07/03 11:14:43;;;;;;;50.88;24.73;;;;;;;20.93;46.04;93252.66;5010564;28;20049;-90
2023/07/03 11:17:39;;;;;;;39.70;19.52;;;;;;;20.91;46.25;93236.72;4981724;28;20073;-93
2023/07/03 11:20:05;;;;;;;28.48;15.63;;;;;;;20.88;46.53;93232.28;4985211;28;20046;-92
2023/07/03 11:22:35;;;;;;;24.33;13.48;;;;;;;20.95;46.55;93247.38;4980780;28;20042;-93
2023/07/03 11:25:20;;;;;;;22.73;11.73;;;;;;;20.97;46.76;93231.09;4982783;28;20133;-91